sensor_id;sensor_type;location;lat;lon;timestamp;temperature;humidity
1702;DHT22;848;48.354;10.064;2024-02-28T00:00:54;8.20;99.90
1702;DHT22;848;48.354;10.064;2024-02-28T00:03:20;8.10;99.90
1702;DHT22;848;48.354;10.064;2024-02-28T00:05:49;8.10;99.90
1702;DHT22;848;48.354;10.064;2024-02-28T00:08:16;8.10;99.90
1702;DHT22;848;48.354;10.064;2024-02-28T00:10:46;8.20;99.90
1702;DHT22;848;48.354;10.064;2024-02-28T00:13:14;8.10;99.90
1702;DHT22;848;48.354;10.064;2024-02-28T00:15:42;8.20;99.90
1702;DHT22;848;48.354;10.064;2024-02-28T00:18:09;8.20;99.90
1702;DHT22;848;48.354;10.064;2024-02-28T00:20:36;8.20;99.90
1702;DHT22;848;48.354;10.064;2024-02-28T00:23:04;8.20;99.90
1702;DHT22;848;48.354;10.064;2024-02-28T00:25:31;8.30;99.90
1702;DHT22;848;48.354;10.064;2024-02-28T00:27:59;8.30;99.90
1702;DHT22;848;48.354;10.064;2024-02-28T00:30:26;8.30;99.90
1702;DHT22;848;48.354;10.064;2024-02-28T00:32:54;8.30;99.90
1702;DHT22;848;48.354;10.064;2024-02-28T00:35:20;8.30;99.90
1702;DHT22;848;48.354;10.064;2024-02-28T00:37:47;8.30;99.90
1702;DHT22;848;48.354;10.064;2024-02-28T00:40:14;8.30;99.90
1702;DHT22;848;48.354;10.064;2024-02-28T00:42:41;8.30;99.90
1702;DHT22;848;48.354;10.064;2024-02-28T00:45:10;8.20;99.90
1702;DHT22;848;48.354;10.064;2024-02-28T00:47:37;8.30;99.90
1702;DHT22;848;48.354;10.064;2024-02-28T00:50:06;8.20;99.90
1702;DHT22;848;48.354;10.064;2024-02-28T00:52:33;8.20;99.90
1702;DHT22;848;48.354;10.064;2024-02-28T00:54:59;8.20;99.90
1702;DHT22;848;48.354;10.064;2024-02-28T00:57:26;8.20;99.90
1702;DHT22;848;48.354;10.064;2024-02-28T00:59:53;8.20;99.90
1702;DHT22;848;48.354;10.064;2024-02-28T01:02:21;8.20;99.90
1702;DHT22;848;48.354;10.064;2024-02-28T01:04:48;8.10;99.90
1702;DHT22;848;48.354;10.064;2024-02-28T01:07:15;8.20;99.90
1702;DHT22;848;48.354;10.064;2024-02-28T01:12:07;8.20;99.90
1702;DHT22;848;48.354;10.064;2024-02-28T01:14:34;8.10;99.90
1702;DHT22;848;48.354;10.064;2024-02-28T01:17:01;8.30;99.90
1702;DHT22;848;48.354;10.064;2024-02-28T01:19:28;8.10;99.90
1702;DHT22;848;48.354;10.064;2024-02-28T01:21:54;8.10;99.90
1702;DHT22;848;48.354;10.064;2024-02-28T01:24:21;8.10;99.90
1702;DHT22;848;48.354;10.064;2024-02-28T01:26:48;8.10;99.90
1702;DHT22;848;48.354;10.064;2024-02-28T01:29:16;8.20;99.90
1702;DHT22;848;48.354;10.064;2024-02-28T01:31:43;8.10;99.90
1702;DHT22;848;48.354;10.064;2024-02-28T01:34:10;8.10;99.90
1702;DHT22;848;48.354;10.064;2024-02-28T01:36:37;8.10;99.90
1702;DHT22;848;48.354;10.064;2024-02-28T01:39:04;8.10;99.90
1702;DHT22;848;48.354;10.064;2024-02-28T01:41:31;8.20;99.90
1702;DHT22;848;48.354;10.064;2024-02-28T01:43:57;8.20;99.90
1702;DHT22;848;48.354;10.064;2024-02-28T01:46:27;8.20;99.90
1702;DHT22;848;48.354;10.064;2024-02-28T01:48:55;8.20;99.90
1702;DHT22;848;48.354;10.064;2024-02-28T01:51:23;8.20;99.90
1702;DHT22;848;48.354;10.064;2024-02-28T01:53:51;8.20;99.90
1702;DHT22;848;48.354;10.064;2024-02-28T01:56:19;8.10;99.90
1702;DHT22;848;48.354;10.064;2024-02-28T01:58:47;8.10;99.90
1702;DHT22;848;48.354;10.064;2024-02-28T02:01:15;8.10;99.90
1702;DHT22;848;48.354;10.064;2024-02-28T02:03:44;8.10;99.90
1702;DHT22;848;48.354;10.064;2024-02-28T02:06:11;8.10;99.90
1702;DHT22;848;48.354;10.064;2024-02-28T02:08:38;8.10;99.90
1702;DHT22;848;48.354;10.064;2024-02-28T02:11:05;8.10;99.90
1702;DHT22;848;48.354;10.064;2024-02-28T02:13:33;8.10;99.90
1702;DHT22;848;48.354;10.064;2024-02-28T02:16:01;8.10;99.90
1702;DHT22;848;48.354;10.064;2024-02-28T02:18:27;8.10;99.90
1702;DHT22;848;48.354;10.064;2024-02-28T02:21:02;8.10;99.90
1702;DHT22;848;48.354;10.064;2024-02-28T02:23:32;8.10;99.90
1702;DHT22;848;48.354;10.064;2024-02-28T02:25:58;8.00;99.90
1702;DHT22;848;48.354;10.064;2024-02-28T02:28:25;8.00;99.90
1702;DHT22;848;48.354;10.064;2024-02-28T02:30:52;8.00;99.90
1702;DHT22;848;48.354;10.064;2024-02-28T02:33:19;8.00;99.90
1702;DHT22;848;48.354;10.064;2024-02-28T02:35:46;7.90;99.90
1702;DHT22;848;48.354;10.064;2024-02-28T02:38:12;7.90;99.90
1702;DHT22;848;48.354;10.064;2024-02-28T02:40:41;7.90;99.90
1702;DHT22;848;48.354;10.064;2024-02-28T02:43:08;7.90;99.90
1702;DHT22;848;48.354;10.064;2024-02-28T02:45:35;7.90;99.90
1702;DHT22;848;48.354;10.064;2024-02-28T02:48:02;7.90;99.90
1702;DHT22;848;48.354;10.064;2024-02-28T02:50:29;7.90;99.90
1702;DHT22;848;48.354;10.064;2024-02-28T02:52:55;8.10;99.90
1702;DHT22;848;48.354;10.064;2024-02-28T02:55:22;8.00;99.90
1702;DHT22;848;48.354;10.064;2024-02-28T02:57:50;8.10;99.90
1702;DHT22;848;48.354;10.064;2024-02-28T03:00:17;7.90;99.90
1702;DHT22;848;48.354;10.064;2024-02-28T03:02:44;8.00;99.90
1702;DHT22;848;48.354;10.064;2024-02-28T03:05:11;8.00;99.90
1702;DHT22;848;48.354;10.064;2024-02-28T03:07:38;8.00;99.90
1702;DHT22;848;48.354;10.064;2024-02-28T03:10:06;7.90;99.90
1702;DHT22;848;48.354;10.064;2024-02-28T03:12:34;8.00;99.90
1702;DHT22;848;48.354;10.064;2024-02-28T03:15:03;8.00;99.90
1702;DHT22;848;48.354;10.064;2024-02-28T03:17:31;7.90;99.90
1702;DHT22;848;48.354;10.064;2024-02-28T03:19:58;8.00;99.90
1702;DHT22;848;48.354;10.064;2024-02-28T03:22:25;8.00;99.90
1702;DHT22;848;48.354;10.064;2024-02-28T03:24:52;7.90;99.90
1702;DHT22;848;48.354;10.064;2024-02-28T03:27:19;7.80;99.90
1702;DHT22;848;48.354;10.064;2024-02-28T03:29:46;7.80;99.90
1702;DHT22;848;48.354;10.064;2024-02-28T03:32:14;7.80;99.90
1702;DHT22;848;48.354;10.064;2024-02-28T03:34:41;7.80;99.90
1702;DHT22;848;48.354;10.064;2024-02-28T03:37:08;7.90;99.90
1702;DHT22;848;48.354;10.064;2024-02-28T03:39:35;7.80;99.90
1702;DHT22;848;48.354;10.064;2024-02-28T03:42:01;7.70;99.90
1702;DHT22;848;48.354;10.064;2024-02-28T03:44:28;7.70;99.90
1702;DHT22;848;48.354;10.064;2024-02-28T03:46:55;7.80;99.90
1702;DHT22;848;48.354;10.064;2024-02-28T03:49:23;7.70;99.90
1702;DHT22;848;48.354;10.064;2024-02-28T03:51:50;7.60;99.90
1702;DHT22;848;48.354;10.064;2024-02-28T03:54:17;7.60;99.90
1702;DHT22;848;48.354;10.064;2024-02-28T03:56:44;7.60;99.90
1702;DHT22;848;48.354;10.064;2024-02-28T03:59:11;7.50;99.90
1702;DHT22;848;48.354;10.064;2024-02-28T04:01:38;7.50;99.90
1702;DHT22;848;48.354;10.064;2024-02-28T04:04:04;7.40;99.90
1702;DHT22;848;48.354;10.064;2024-02-28T04:06:34;7.50;99.90
1702;DHT22;848;48.354;10.064;2024-02-28T04:09:01;7.50;99.90
1702;DHT22;848;48.354;10.064;2024-02-28T04:11:28;7.50;99.90
1702;DHT22;848;48.354;10.064;2024-02-28T04:13:55;7.40;99.90
1702;DHT22;848;48.354;10.064;2024-02-28T04:16:22;7.40;99.90
1702;DHT22;848;48.354;10.064;2024-02-28T04:18:49;7.40;99.90
1702;DHT22;848;48.354;10.064;2024-02-28T04:21:15;7.40;99.90
1702;DHT22;848;48.354;10.064;2024-02-28T04:23:44;7.40;99.90
1702;DHT22;848;48.354;10.064;2024-02-28T04:26:11;7.40;99.90
1702;DHT22;848;48.354;10.064;2024-02-28T04:28:38;7.30;99.90
1702;DHT22;848;48.354;10.064;2024-02-28T04:31:03;7.20;99.90
1702;DHT22;848;48.354;10.064;2024-02-28T04:33:30;7.30;99.90
1702;DHT22;848;48.354;10.064;2024-02-28T04:35:57;7.30;99.90
1702;DHT22;848;48.354;10.064;2024-02-28T04:38:24;7.40;99.90
1702;DHT22;848;48.354;10.064;2024-02-28T04:40:52;7.40;99.90
1702;DHT22;848;48.354;10.064;2024-02-28T04:43:19;7.30;99.90
1702;DHT22;848;48.354;10.064;2024-02-28T04:45:46;7.30;99.90
1702;DHT22;848;48.354;10.064;2024-02-28T04:48:13;7.30;99.90
1702;DHT22;848;48.354;10.064;2024-02-28T04:50:39;7.30;99.90
1702;DHT22;848;48.354;10.064;2024-02-28T04:53:06;7.40;99.90
1702;DHT22;848;48.354;10.064;2024-02-28T04:55:33;7.50;99.90
1702;DHT22;848;48.354;10.064;2024-02-28T04:58:01;7.50;99.90
1702;DHT22;848;48.354;10.064;2024-02-28T05:00:28;7.60;99.90
1702;DHT22;848;48.354;10.064;2024-02-28T05:02:55;7.70;99.90
1702;DHT22;848;48.354;10.064;2024-02-28T05:05:22;7.70;99.90
1702;DHT22;848;48.354;10.064;2024-02-28T05:07:49;7.70;99.90
1702;DHT22;848;48.354;10.064;2024-02-28T05:10:16;7.70;99.90
1702;DHT22;848;48.354;10.064;2024-02-28T05:12:43;7.70;99.90
1702;DHT22;848;48.354;10.064;2024-02-28T05:15:12;7.70;99.90
1702;DHT22;848;48.354;10.064;2024-02-28T05:17:39;7.70;99.90
1702;DHT22;848;48.354;10.064;2024-02-28T05:20:07;7.70;99.90
1702;DHT22;848;48.354;10.064;2024-02-28T05:22:34;7.70;99.90
1702;DHT22;848;48.354;10.064;2024-02-28T05:25:01;7.70;99.90
1702;DHT22;848;48.354;10.064;2024-02-28T05:27:28;7.70;99.90
1702;DHT22;848;48.354;10.064;2024-02-28T05:29:55;7.80;99.90
1702;DHT22;848;48.354;10.064;2024-02-28T05:32:23;7.60;99.90
1702;DHT22;848;48.354;10.064;2024-02-28T05:34:50;7.70;99.90
1702;DHT22;848;48.354;10.064;2024-02-28T05:37:17;7.60;99.90
1702;DHT22;848;48.354;10.064;2024-02-28T05:39:45;7.50;99.90
1702;DHT22;848;48.354;10.064;2024-02-28T05:42:12;7.50;99.90
1702;DHT22;848;48.354;10.064;2024-02-28T05:44:41;7.40;99.90
1702;DHT22;848;48.354;10.064;2024-02-28T05:47:09;7.40;99.90
1702;DHT22;848;48.354;10.064;2024-02-28T05:49:37;7.40;99.90
1702;DHT22;848;48.354;10.064;2024-02-28T05:52:05;7.40;99.90
1702;DHT22;848;48.354;10.064;2024-02-28T05:54:32;7.40;99.90
1702;DHT22;848;48.354;10.064;2024-02-28T05:56:59;7.30;99.90
1702;DHT22;848;48.354;10.064;2024-02-28T05:59:26;7.30;99.90
1702;DHT22;848;48.354;10.064;2024-02-28T06:01:53;7.30;99.90
1702;DHT22;848;48.354;10.064;2024-02-28T06:04:20;7.20;99.90
1702;DHT22;848;48.354;10.064;2024-02-28T06:06:48;7.10;99.90
1702;DHT22;848;48.354;10.064;2024-02-28T06:09:16;7.10;99.90
1702;DHT22;848;48.354;10.064;2024-02-28T06:11:43;7.10;99.90
1702;DHT22;848;48.354;10.064;2024-02-28T06:14:10;7.10;99.90
1702;DHT22;848;48.354;10.064;2024-02-28T06:16:36;7.20;99.90
1702;DHT22;848;48.354;10.064;2024-02-28T06:19:03;7.30;99.90
1702;DHT22;848;48.354;10.064;2024-02-28T06:21:30;7.30;99.90
1702;DHT22;848;48.354;10.064;2024-02-28T06:23:58;7.40;99.90
1702;DHT22;848;48.354;10.064;2024-02-28T06:26:25;7.40;99.90
1702;DHT22;848;48.354;10.064;2024-02-28T06:28:52;7.40;99.90
1702;DHT22;848;48.354;10.064;2024-02-28T06:31:19;7.40;99.90
1702;DHT22;848;48.354;10.064;2024-02-28T06:33:46;7.40;99.90
1702;DHT22;848;48.354;10.064;2024-02-28T06:36:13;7.40;99.90
1702;DHT22;848;48.354;10.064;2024-02-28T06:38:40;7.40;99.90
1702;DHT22;848;48.354;10.064;2024-02-28T06:41:08;7.40;99.90
1702;DHT22;848;48.354;10.064;2024-02-28T06:43:36;7.50;99.90
1702;DHT22;848;48.354;10.064;2024-02-28T06:46:03;7.50;99.90
1702;DHT22;848;48.354;10.064;2024-02-28T06:48:30;7.70;99.90
1702;DHT22;848;48.354;10.064;2024-02-28T06:50:57;7.60;99.90
1702;DHT22;848;48.354;10.064;2024-02-28T06:53:24;7.60;99.90
1702;DHT22;848;48.354;10.064;2024-02-28T06:55:51;7.50;99.90
1702;DHT22;848;48.354;10.064;2024-02-28T06:58:20;7.50;99.90
1702;DHT22;848;48.354;10.064;2024-02-28T07:00:47;7.50;99.90
1702;DHT22;848;48.354;10.064;2024-02-28T07:03:14;7.50;99.90
1702;DHT22;848;48.354;10.064;2024-02-28T07:05:41;7.60;99.90
1702;DHT22;848;48.354;10.064;2024-02-28T07:08:08;7.60;99.90
1702;DHT22;848;48.354;10.064;2024-02-28T07:10:36;7.60;99.90
1702;DHT22;848;48.354;10.064;2024-02-28T07:13:08;7.60;99.90
1702;DHT22;848;48.354;10.064;2024-02-28T07:15:36;7.70;99.90
1702;DHT22;848;48.354;10.064;2024-02-28T07:18:03;7.70;99.90
1702;DHT22;848;48.354;10.064;2024-02-28T07:20:30;7.60;99.90
1702;DHT22;848;48.354;10.064;2024-02-28T07:22:57;7.60;99.90
1702;DHT22;848;48.354;10.064;2024-02-28T07:25:24;7.60;99.90
1702;DHT22;848;48.354;10.064;2024-02-28T07:27:51;7.60;99.90
1702;DHT22;848;48.354;10.064;2024-02-28T07:30:18;7.70;99.90
1702;DHT22;848;48.354;10.064;2024-02-28T07:32:46;7.70;99.90
1702;DHT22;848;48.354;10.064;2024-02-28T07:35:14;7.70;99.90
1702;DHT22;848;48.354;10.064;2024-02-28T07:37:41;7.70;99.90
1702;DHT22;848;48.354;10.064;2024-02-28T07:40:09;7.70;99.90
1702;DHT22;848;48.354;10.064;2024-02-28T07:42:36;7.70;99.90
1702;DHT22;848;48.354;10.064;2024-02-28T07:45:03;7.70;99.90
1702;DHT22;848;48.354;10.064;2024-02-28T07:47:30;7.60;99.90
1702;DHT22;848;48.354;10.064;2024-02-28T07:49:59;7.60;99.90
1702;DHT22;848;48.354;10.064;2024-02-28T07:52:25;7.60;99.90
1702;DHT22;848;48.354;10.064;2024-02-28T07:54:52;7.60;99.90
1702;DHT22;848;48.354;10.064;2024-02-28T07:57:19;7.70;99.90
1702;DHT22;848;48.354;10.064;2024-02-28T07:59:46;7.70;99.90
1702;DHT22;848;48.354;10.064;2024-02-28T08:02:13;7.60;99.90
1702;DHT22;848;48.354;10.064;2024-02-28T08:04:40;7.60;99.90
1702;DHT22;848;48.354;10.064;2024-02-28T08:07:08;7.60;99.90
1702;DHT22;848;48.354;10.064;2024-02-28T08:09:35;7.60;99.90
1702;DHT22;848;48.354;10.064;2024-02-28T08:12:02;7.50;99.90
1702;DHT22;848;48.354;10.064;2024-02-28T08:14:29;7.50;99.90
1702;DHT22;848;48.354;10.064;2024-02-28T08:16:56;7.50;99.90
1702;DHT22;848;48.354;10.064;2024-02-28T08:19:22;7.50;99.90
1702;DHT22;848;48.354;10.064;2024-02-28T08:21:49;7.60;99.90
1702;DHT22;848;48.354;10.064;2024-02-28T08:24:21;7.60;99.90
1702;DHT22;848;48.354;10.064;2024-02-28T08:26:47;7.60;99.90
1702;DHT22;848;48.354;10.064;2024-02-28T08:29:14;7.60;99.90
1702;DHT22;848;48.354;10.064;2024-02-28T08:31:43;7.60;99.90
1702;DHT22;848;48.354;10.064;2024-02-28T08:34:09;7.60;99.90
1702;DHT22;848;48.354;10.064;2024-02-28T08:36:36;7.70;99.90
1702;DHT22;848;48.354;10.064;2024-02-28T08:39:03;7.80;99.90
1702;DHT22;848;48.354;10.064;2024-02-28T08:41:34;7.80;99.90
1702;DHT22;848;48.354;10.064;2024-02-28T08:44:01;7.80;99.90
1702;DHT22;848;48.354;10.064;2024-02-28T08:46:27;7.80;99.90
1702;DHT22;848;48.354;10.064;2024-02-28T08:48:54;7.80;99.90
1702;DHT22;848;48.354;10.064;2024-02-28T08:51:21;7.80;99.90
1702;DHT22;848;48.354;10.064;2024-02-28T08:53:48;7.80;99.90
1702;DHT22;848;48.354;10.064;2024-02-28T08:56:15;7.90;99.90
1702;DHT22;848;48.354;10.064;2024-02-28T08:58:43;7.90;99.90
1702;DHT22;848;48.354;10.064;2024-02-28T09:01:13;8.00;99.90
1702;DHT22;848;48.354;10.064;2024-02-28T09:03:41;8.00;99.90
1702;DHT22;848;48.354;10.064;2024-02-28T09:06:08;8.00;99.90
1702;DHT22;848;48.354;10.064;2024-02-28T09:08:35;7.90;99.90
1702;DHT22;848;48.354;10.064;2024-02-28T09:11:02;7.90;99.90
1702;DHT22;848;48.354;10.064;2024-02-28T09:13:30;7.90;99.90
1702;DHT22;848;48.354;10.064;2024-02-28T09:15:58;7.90;99.90
1702;DHT22;848;48.354;10.064;2024-02-28T09:18:25;7.70;99.90
1702;DHT22;848;48.354;10.064;2024-02-28T09:20:52;8.10;99.90
1702;DHT22;848;48.354;10.064;2024-02-28T09:23:19;8.00;99.90
1702;DHT22;848;48.354;10.064;2024-02-28T09:25:46;8.00;99.90
1702;DHT22;848;48.354;10.064;2024-02-28T09:28:13;8.10;99.90
1702;DHT22;848;48.354;10.064;2024-02-28T09:30:41;8.10;99.90
1702;DHT22;848;48.354;10.064;2024-02-28T09:33:10;8.10;99.90
1702;DHT22;848;48.354;10.064;2024-02-28T09:35:37;8.20;99.90
1702;DHT22;848;48.354;10.064;2024-02-28T09:38:04;8.30;99.90
1702;DHT22;848;48.354;10.064;2024-02-28T09:40:31;8.40;99.90
1702;DHT22;848;48.354;10.064;2024-02-28T09:43:01;8.50;99.90
1702;DHT22;848;48.354;10.064;2024-02-28T09:45:29;8.50;99.90
1702;DHT22;848;48.354;10.064;2024-02-28T09:47:58;8.70;99.90
1702;DHT22;848;48.354;10.064;2024-02-28T09:50:27;8.70;99.90
1702;DHT22;848;48.354;10.064;2024-02-28T09:52:54;8.80;99.90
1702;DHT22;848;48.354;10.064;2024-02-28T09:55:21;8.80;99.90
1702;DHT22;848;48.354;10.064;2024-02-28T09:57:48;8.80;99.90
1702;DHT22;848;48.354;10.064;2024-02-28T10:00:19;8.70;99.90
1702;DHT22;848;48.354;10.064;2024-02-28T10:02:47;8.80;99.90
1702;DHT22;848;48.354;10.064;2024-02-28T10:05:16;8.80;99.90
1702;DHT22;848;48.354;10.064;2024-02-28T10:07:45;9.00;99.90
1702;DHT22;848;48.354;10.064;2024-02-28T10:10:13;9.20;99.90
1702;DHT22;848;48.354;10.064;2024-02-28T10:12:42;9.30;99.90
1702;DHT22;848;48.354;10.064;2024-02-28T10:15:10;9.30;99.90
1702;DHT22;848;48.354;10.064;2024-02-28T10:17:37;9.30;99.90
1702;DHT22;848;48.354;10.064;2024-02-28T10:20:05;9.30;99.90
1702;DHT22;848;48.354;10.064;2024-02-28T10:22:35;9.20;99.90
1702;DHT22;848;48.354;10.064;2024-02-28T10:25:04;9.20;99.90
1702;DHT22;848;48.354;10.064;2024-02-28T10:27:34;9.10;99.90
1702;DHT22;848;48.354;10.064;2024-02-28T10:30:02;9.10;99.90
1702;DHT22;848;48.354;10.064;2024-02-28T10:32:30;9.00;99.90
1702;DHT22;848;48.354;10.064;2024-02-28T10:34:59;8.90;99.90
1702;DHT22;848;48.354;10.064;2024-02-28T10:37:29;9.00;99.90
1702;DHT22;848;48.354;10.064;2024-02-28T10:39:57;9.10;99.90
1702;DHT22;848;48.354;10.064;2024-02-28T10:42:29;9.10;99.90
1702;DHT22;848;48.354;10.064;2024-02-28T10:44:58;9.00;99.90
1702;DHT22;848;48.354;10.064;2024-02-28T10:47:27;9.00;99.90
1702;DHT22;848;48.354;10.064;2024-02-28T10:49:55;8.90;99.90
1702;DHT22;848;48.354;10.064;2024-02-28T10:52:22;8.90;99.90
1702;DHT22;848;48.354;10.064;2024-02-28T10:54:54;9.00;99.90
1702;DHT22;848;48.354;10.064;2024-02-28T10:57:22;9.00;99.90
1702;DHT22;848;48.354;10.064;2024-02-28T10:59:52;9.00;99.90
1702;DHT22;848;48.354;10.064;2024-02-28T11:02:20;9.00;99.90
1702;DHT22;848;48.354;10.064;2024-02-28T11:04:51;8.80;99.90
1702;DHT22;848;48.354;10.064;2024-02-28T11:07:19;8.80;99.90
1702;DHT22;848;48.354;10.064;2024-02-28T11:09:47;8.80;99.90
1702;DHT22;848;48.354;10.064;2024-02-28T11:12:24;8.90;99.90
1702;DHT22;848;48.354;10.064;2024-02-28T11:14:58;8.90;99.90
1702;DHT22;848;48.354;10.064;2024-02-28T11:17:29;9.00;99.90
1702;DHT22;848;48.354;10.064;2024-02-28T11:19:56;9.00;99.90
1702;DHT22;848;48.354;10.064;2024-02-28T11:22:24;8.90;99.90
1702;DHT22;848;48.354;10.064;2024-02-28T11:24:54;9.00;99.90
1702;DHT22;848;48.354;10.064;2024-02-28T11:27:21;9.20;99.90
1702;DHT22;848;48.354;10.064;2024-02-28T11:29:48;9.00;99.90
1702;DHT22;848;48.354;10.064;2024-02-28T11:32:16;9.00;99.90
1702;DHT22;848;48.354;10.064;2024-02-28T11:34:43;9.00;99.90
1702;DHT22;848;48.354;10.064;2024-02-28T11:37:11;9.10;99.90
1702;DHT22;848;48.354;10.064;2024-02-28T11:40:57;9.20;99.90
1702;DHT22;848;48.354;10.064;2024-02-28T11:43:24;9.40;99.90
1702;DHT22;848;48.354;10.064;2024-02-28T11:45:50;9.40;99.90
1702;DHT22;848;48.354;10.064;2024-02-28T11:48:18;9.50;99.90
1702;DHT22;848;48.354;10.064;2024-02-28T11:50:45;9.40;99.90
1702;DHT22;848;48.354;10.064;2024-02-28T11:53:11;9.30;99.90
1702;DHT22;848;48.354;10.064;2024-02-28T11:55:39;9.30;99.90
1702;DHT22;848;48.354;10.064;2024-02-28T11:58:09;9.20;99.90
1702;DHT22;848;48.354;10.064;2024-02-28T12:00:46;9.20;99.90
1702;DHT22;848;48.354;10.064;2024-02-28T12:03:19;9.30;99.90
1702;DHT22;848;48.354;10.064;2024-02-28T12:05:46;9.50;99.90
1702;DHT22;848;48.354;10.064;2024-02-28T12:08:13;9.60;99.90
1702;DHT22;848;48.354;10.064;2024-02-28T12:10:40;9.70;99.90
1702;DHT22;848;48.354;10.064;2024-02-28T12:13:09;9.70;99.90
1702;DHT22;848;48.354;10.064;2024-02-28T12:15:37;9.80;99.90
1702;DHT22;848;48.354;10.064;2024-02-28T12:18:08;9.80;99.90
1702;DHT22;848;48.354;10.064;2024-02-28T12:20:35;9.80;99.90
1702;DHT22;848;48.354;10.064;2024-02-28T12:23:04;9.80;99.90
1702;DHT22;848;48.354;10.064;2024-02-28T12:25:31;9.70;99.90
1702;DHT22;848;48.354;10.064;2024-02-28T12:27:58;9.60;99.90
1702;DHT22;848;48.354;10.064;2024-02-28T12:30:26;9.60;99.90
1702;DHT22;848;48.354;10.064;2024-02-28T12:32:53;9.60;99.90
1702;DHT22;848;48.354;10.064;2024-02-28T12:35:20;9.60;99.90
1702;DHT22;848;48.354;10.064;2024-02-28T12:37:47;9.40;99.90
1702;DHT22;848;48.354;10.064;2024-02-28T12:40:16;9.40;99.90
1702;DHT22;848;48.354;10.064;2024-02-28T12:42:43;9.50;99.90
1702;DHT22;848;48.354;10.064;2024-02-28T12:45:10;9.60;99.90
1702;DHT22;848;48.354;10.064;2024-02-28T12:47:39;9.50;99.90
1702;DHT22;848;48.354;10.064;2024-02-28T12:50:06;9.50;99.90
1702;DHT22;848;48.354;10.064;2024-02-28T12:52:35;9.50;99.90
1702;DHT22;848;48.354;10.064;2024-02-28T12:55:01;9.40;99.90
1702;DHT22;848;48.354;10.064;2024-02-28T12:57:29;9.30;99.90
1702;DHT22;848;48.354;10.064;2024-02-28T12:59:55;9.20;99.90
1702;DHT22;848;48.354;10.064;2024-02-28T13:02:22;9.10;99.90
1702;DHT22;848;48.354;10.064;2024-02-28T13:04:51;9.10;99.90
1702;DHT22;848;48.354;10.064;2024-02-28T13:07:17;9.20;99.90
1702;DHT22;848;48.354;10.064;2024-02-28T13:09:48;9.30;99.90
1702;DHT22;848;48.354;10.064;2024-02-28T13:12:15;9.60;99.90
1702;DHT22;848;48.354;10.064;2024-02-28T13:14:42;9.60;99.90
1702;DHT22;848;48.354;10.064;2024-02-28T13:17:10;9.60;99.90
1702;DHT22;848;48.354;10.064;2024-02-28T13:19:41;9.70;99.90
1702;DHT22;848;48.354;10.064;2024-02-28T13:22:09;9.60;99.90
1702;DHT22;848;48.354;10.064;2024-02-28T13:24:36;9.70;99.90
1702;DHT22;848;48.354;10.064;2024-02-28T13:27:03;9.70;99.90
1702;DHT22;848;48.354;10.064;2024-02-28T13:29:30;9.70;99.90
1702;DHT22;848;48.354;10.064;2024-02-28T13:31:57;9.70;99.90
1702;DHT22;848;48.354;10.064;2024-02-28T13:34:24;9.60;99.90
1702;DHT22;848;48.354;10.064;2024-02-28T13:38:52;9.70;99.90
1702;DHT22;848;48.354;10.064;2024-02-28T13:41:19;9.60;99.90
1702;DHT22;848;48.354;10.064;2024-02-28T13:43:46;9.50;99.90
1702;DHT22;848;48.354;10.064;2024-02-28T13:46:12;9.50;99.90
1702;DHT22;848;48.354;10.064;2024-02-28T13:48:40;9.50;99.90
1702;DHT22;848;48.354;10.064;2024-02-28T13:51:07;9.60;99.90
1702;DHT22;848;48.354;10.064;2024-02-28T13:53:34;9.60;99.90
1702;DHT22;848;48.354;10.064;2024-02-28T13:56:03;9.60;99.90
1702;DHT22;848;48.354;10.064;2024-02-28T13:58:30;9.60;99.90
1702;DHT22;848;48.354;10.064;2024-02-28T14:00:57;9.60;99.90
1702;DHT22;848;48.354;10.064;2024-02-28T14:03:24;9.70;99.90
1702;DHT22;848;48.354;10.064;2024-02-28T14:05:51;9.60;99.90
1702;DHT22;848;48.354;10.064;2024-02-28T14:08:18;9.60;99.90
1702;DHT22;848;48.354;10.064;2024-02-28T14:10:45;9.50;99.90
1702;DHT22;848;48.354;10.064;2024-02-28T14:13:14;9.60;99.90
1702;DHT22;848;48.354;10.064;2024-02-28T14:15:43;9.50;99.90
1702;DHT22;848;48.354;10.064;2024-02-28T14:18:11;9.40;99.90
1702;DHT22;848;48.354;10.064;2024-02-28T14:20:38;9.30;99.90
1702;DHT22;848;48.354;10.064;2024-02-28T14:23:05;9.20;99.90
1702;DHT22;848;48.354;10.064;2024-02-28T14:25:31;9.10;99.90
1702;DHT22;848;48.354;10.064;2024-02-28T14:27:58;9.00;99.90
1702;DHT22;848;48.354;10.064;2024-02-28T14:30:26;9.00;99.90
1702;DHT22;848;48.354;10.064;2024-02-28T14:32:54;9.00;99.90
1702;DHT22;848;48.354;10.064;2024-02-28T14:35:21;9.00;99.90
1702;DHT22;848;48.354;10.064;2024-02-28T14:37:48;9.10;99.90
1702;DHT22;848;48.354;10.064;2024-02-28T14:40:14;9.20;99.90
1702;DHT22;848;48.354;10.064;2024-02-28T14:42:42;9.20;99.90
1702;DHT22;848;48.354;10.064;2024-02-28T14:45:11;9.10;99.90
1702;DHT22;848;48.354;10.064;2024-02-28T14:47:41;9.10;99.90
1702;DHT22;848;48.354;10.064;2024-02-28T14:50:09;9.10;99.90
1702;DHT22;848;48.354;10.064;2024-02-28T14:52:37;9.00;99.90
1702;DHT22;848;48.354;10.064;2024-02-28T14:55:04;9.00;99.90
1702;DHT22;848;48.354;10.064;2024-02-28T14:57:32;8.90;99.90
1702;DHT22;848;48.354;10.064;2024-02-28T14:59:59;8.90;99.90
1702;DHT22;848;48.354;10.064;2024-02-28T15:02:27;8.90;99.90
1702;DHT22;848;48.354;10.064;2024-02-28T15:04:55;9.00;99.90
1702;DHT22;848;48.354;10.064;2024-02-28T15:07:22;9.00;99.90
1702;DHT22;848;48.354;10.064;2024-02-28T15:09:50;9.00;99.90
1702;DHT22;848;48.354;10.064;2024-02-28T15:12:16;8.90;99.90
1702;DHT22;848;48.354;10.064;2024-02-28T15:14:43;8.80;99.90
1702;DHT22;848;48.354;10.064;2024-02-28T15:17:10;8.80;99.90
1702;DHT22;848;48.354;10.064;2024-02-28T15:19:37;8.80;99.90
1702;DHT22;848;48.354;10.064;2024-02-28T15:22:05;8.70;99.90
1702;DHT22;848;48.354;10.064;2024-02-28T15:24:34;8.70;99.90
1702;DHT22;848;48.354;10.064;2024-02-28T15:27:01;8.70;99.90
1702;DHT22;848;48.354;10.064;2024-02-28T15:29:28;8.60;99.90
1702;DHT22;848;48.354;10.064;2024-02-28T15:31:55;8.50;99.90
1702;DHT22;848;48.354;10.064;2024-02-28T15:34:21;8.50;99.90
1702;DHT22;848;48.354;10.064;2024-02-28T15:36:48;8.50;99.90
1702;DHT22;848;48.354;10.064;2024-02-28T15:39:16;8.60;99.90
1702;DHT22;848;48.354;10.064;2024-02-28T15:41:43;8.50;99.90
1702;DHT22;848;48.354;10.064;2024-02-28T15:44:10;8.40;99.90
1702;DHT22;848;48.354;10.064;2024-02-28T15:46:37;8.40;99.90
1702;DHT22;848;48.354;10.064;2024-02-28T15:49:04;8.40;99.90
1702;DHT22;848;48.354;10.064;2024-02-28T15:51:31;8.50;99.90
1702;DHT22;848;48.354;10.064;2024-02-28T15:53:58;8.50;99.90
1702;DHT22;848;48.354;10.064;2024-02-28T15:56:26;8.40;99.90
1702;DHT22;848;48.354;10.064;2024-02-28T15:58:55;8.50;99.90
1702;DHT22;848;48.354;10.064;2024-02-28T16:01:22;8.60;99.90
1702;DHT22;848;48.354;10.064;2024-02-28T16:03:49;8.60;99.90
1702;DHT22;848;48.354;10.064;2024-02-28T16:06:16;8.70;99.90
1702;DHT22;848;48.354;10.064;2024-02-28T16:08:42;8.70;99.90
1702;DHT22;848;48.354;10.064;2024-02-28T16:11:10;8.70;99.90
1702;DHT22;848;48.354;10.064;2024-02-28T16:13:39;8.60;99.90
1702;DHT22;848;48.354;10.064;2024-02-28T16:16:07;8.70;99.90
1702;DHT22;848;48.354;10.064;2024-02-28T16:18:34;8.60;99.90
1702;DHT22;848;48.354;10.064;2024-02-28T16:21:01;8.60;99.90
1702;DHT22;848;48.354;10.064;2024-02-28T16:23:29;8.60;99.90